Time;durP1;ratioP1;P1;durP2;ratioP2;P2;SDS_P1;SDS_P2;PMS_P1;PMS_P2;Temp;Humidity;BMP_temperature;BMP_pressure;BME280_temperature;BME280_humidity;BME280_pressure;Samples;Min_cycle;Max_cycle;Signal;HPM_P1;HPM_P2
2022/11/28 00:01:53;;;;;;;16.43;10.67;;;;;;;4.21;100.00;95202.50;5033775;28;20199;-84
2022/11/28 00:04:19;;;;;;;18.37;10.60;;;;;;;4.18;100.00;95197.69;5030923;28;20307;-78
2022/11/28 00:06:48;;;;;;;16.17;10.50;;;;;;;4.15;100.00;95195.44;5034146;28;20207;-79
2022/11/28 00:09:16;;;;;;;16.63;10.63;;;;;;;4.11;100.00;95193.34;5038429;28;20230;-78
2022/11/28 00:11:45;;;;;;;16.10;10.57;;;;;;;4.04;100.00;95200.13;5034878;28;20898;-93
2022/11/28 00:14:14;;;;;;;19.13;10.30;;;;;;;3.95;100.00;95187.25;5035544;28;20662;-91
2022/11/28 00:16:41;;;;;;;17.67;9.77;;;;;;;3.88;100.00;95191.47;5035331;28;20214;-92
2022/11/28 00:19:08;;;;;;;17.03;10.03;;;;;;;3.91;100.00;95180.06;5034877;28;20199;-92
2022/11/28 00:21:35;;;;;;;15.30;9.67;;;;;;;3.93;100.00;95186.63;5039729;28;20201;-89
2022/11/28 00:24:03;;;;;;;17.83;11.17;;;;;;;4.01;100.00;95202.03;5043460;28;20218;-90
2022/11/28 00:26:32;;;;;;;16.20;10.43;;;;;;;4.02;100.00;95200.28;5035136;28;20844;-90
2022/11/28 00:28:59;;;;;;;19.00;10.90;;;;;;;3.98;100.00;95194.66;5053874;28;20572;-91
2022/11/28 00:31:30;;;;;;;17.40;10.30;;;;;;;3.90;100.00;95197.25;5043315;28;20296;-91
2022/11/28 00:33:58;;;;;;;15.80;10.07;;;;;;;3.93;100.00;95196.91;5034316;28;20201;-91
2022/11/28 00:36:25;;;;;;;15.00;9.20;;;;;;;3.87;100.00;95199.34;5035657;28;20203;-91
2022/11/28 00:38:52;;;;;;;12.33;8.00;;;;;;;3.80;100.00;95193.25;5038439;28;20541;-89
2022/11/28 00:41:22;;;;;;;13.37;8.07;;;;;;;3.74;100.00;95192.13;5032834;28;20202;-88
2022/11/28 00:43:51;;;;;;;13.20;8.57;;;;;;;3.79;100.00;95191.63;5034100;28;20196;-87
2022/11/28 00:46:20;;;;;;;11.33;7.93;;;;;;;3.75;100.00;95186.00;5036131;28;20213;-79
2022/11/28 00:48:49;;;;;;;12.77;8.10;;;;;;;3.73;100.00;95179.44;5034852;28;20219;-80
2022/11/28 00:51:18;;;;;;;11.20;7.63;;;;;;;3.79;100.00;95196.78;5037573;28;20735;-80
2022/11/28 00:53:46;;;;;;;10.27;7.07;;;;;;;3.79;100.00;95191.63;5037987;28;20286;-79
2022/11/28 00:56:16;;;;;;;12.53;7.27;;;;;;;3.78;100.00;95179.78;5035369;28;20203;-79
2022/11/28 00:58:43;;;;;;;11.17;6.97;;;;;;;3.73;100.00;95169.97;5033323;28;20656;-79
2022/11/28 01:01:12;;;;;;;9.60;6.80;;;;;;;3.89;100.00;95187.94;5034578;28;20622;-80
2022/11/28 01:03:39;;;;;;;10.77;6.70;;;;;;;3.92;100.00;95186.81;5035486;28;20205;-89
2022/11/28 01:06:08;;;;;;;9.83;6.87;;;;;;;3.83;100.00;95164.66;5034049;28;20210;-90
2022/11/28 01:08:37;;;;;;;9.50;6.57;;;;;;;3.94;100.00;95195.16;5040554;28;20226;-89
2022/11/28 01:11:04;;;;;;;10.20;6.80;;;;;;;3.84;100.00;95173.94;5035461;28;20573;-90
2022/11/28 01:13:31;;;;;;;12.33;7.10;;;;;;;3.86;100.00;95180.56;5040487;28;20661;-90
2022/11/28 01:15:58;;;;;;;9.33;6.40;;;;;;;3.84;100.00;95179.91;5041575;28;20210;-90
2022/11/28 01:18:25;;;;;;;10.27;7.00;;;;;;;3.83;100.00;95178.31;5033578;28;20198;-86
2022/11/28 01:20:52;;;;;;;9.93;6.67;;;;;;;3.76;100.00;95181.69;5032204;28;20200;-85
2022/11/28 01:23:20;;;;;;;11.23;6.80;;;;;;;3.52;100.00;95150.91;5031330;28;20207;-88
2022/11/28 01:25:47;;;;;;;9.40;6.83;;;;;;;3.73;100.00;95182.81;5034648;28;20600;-88
2022/11/28 01:28:14;;;;;;;10.33;7.10;;;;;;;3.76;100.00;95182.50;5032971;28;20241;-90
2022/11/28 01:30:41;;;;;;;10.70;6.67;;;;;;;3.71;100.00;95182.19;5031496;28;20677;-86
2022/11/28 01:33:08;;;;;;;10.93;6.70;;;;;;;3.39;100.00;95131.63;5033390;28;20233;-94
2022/11/28 01:35:35;;;;;;;11.37;6.87;;;;;;;3.61;100.00;95173.06;5040715;28;20242;-94
2022/11/28 01:38:02;;;;;;;10.77;7.23;;;;;;;3.60;100.00;95174.81;5039658;28;20222;-94
2022/11/28 01:40:31;;;;;;;10.87;7.13;;;;;;;3.55;100.00;95163.41;5033922;28;20551;-88
2022/11/28 01:42:57;;;;;;;10.63;6.67;;;;;;;3.50;100.00;95155.38;5035502;28;20378;-88
2022/11/28 01:45:27;;;;;;;10.37;6.40;;;;;;;3.55;100.00;95163.41;5035134;28;20202;-88
2022/11/28 01:48:00;;;;;;;10.57;6.83;;;;;;;3.52;100.00;95158.59;5039966;28;20194;-89
2022/11/28 01:50:28;;;;;;;11.00;6.10;;;;;;;3.53;100.00;95162.75;5032079;28;20599;-90
2022/11/28 01:53:00;;;;;;;11.77;7.30;;;;;;;3.50;100.00;95145.91;5031906;28;20665;-90
2022/11/28 01:55:31;;;;;;;10.77;6.93;;;;;;;3.58;100.00;95158.72;5031614;28;20578;-86
2022/11/28 01:57:59;;;;;;;11.20;6.53;;;;;;;3.53;100.00;95150.72;5034207;28;20280;-79
2022/11/28 02:00:26;;;;;;;12.00;7.30;;;;;;;3.51;100.00;95154.41;5032990;28;20198;-78
2022/11/28 02:02:57;;;;;;;9.80;6.80;;;;;;;3.48;100.00;95152.19;5032058;28;20203;-78
2022/11/28 02:05:23;;;;;;;12.40;7.80;;;;;;;3.48;100.00;95141.91;5036724;28;20195;-79
2022/11/28 02:07:51;;;;;;;15.07;8.50;;;;;;;3.55;100.00;95159.06;5030670;28;20199;-79
2022/11/28 02:10:22;;;;;;;13.97;8.10;;;;;;;3.56;100.00;95162.44;5034578;28;20657;-79
2022/11/28 02:13:09;;;;;;;12.40;7.77;;;;;;;3.59;100.00;95157.78;5029276;28;20206;-78
2022/11/28 02:16:08;;;;;;;12.87;7.47;;;;;;;3.50;100.00;95137.41;5040737;28;20198;-78
2022/11/28 02:18:51;;;;;;;9.17;6.83;;;;;;;3.50;100.00;95142.53;5036738;28;20268;-91
2022/11/28 02:21:47;;;;;;;9.73;6.93;;;;;;;3.40;100.00;95143.53;5031381;28;20204;-92
2022/11/28 02:24:46;;;;;;;11.70;7.23;;;;;;;3.41;100.00;95145.13;5021100;28;20244;-91
2022/11/28 02:27:52;;;;;;;10.37;7.63;;;;;;;3.46;100.00;95148.97;5039976;28;20699;-91
2022/11/28 02:30:21;;;;;;;10.43;7.23;;;;;;;3.44;100.00;95139.66;5023890;28;20297;-91
2022/11/28 02:33:17;;;;;;;10.17;7.07;;;;;;;3.46;100.00;95147.22;5036139;28;20221;-79
2022/11/28 02:35:53;;;;;;;9.70;6.90;;;;;;;3.48;100.00;95147.03;5035948;28;20240;-91
2022/11/28 02:38:28;;;;;;;10.83;6.87;;;;;;;3.48;100.00;95142.72;5029632;28;20229;-91
2022/11/28 02:41:01;;;;;;;8.93;6.57;;;;;;;3.57;100.00;95153.78;5030894;28;20624;-90
2022/11/28 02:43:34;;;;;;;9.67;6.40;;;;;;;3.54;100.00;95148.97;5038565;28;20574;-78
2022/11/28 02:46:08;;;;;;;8.53;6.30;;;;;;;3.47;100.00;95135.94;5028095;28;20222;-79
2022/11/28 02:48:42;;;;;;;9.63;6.53;;;;;;;3.55;100.00;95153.16;5029340;28;20219;-86
2022/11/28 02:51:14;;;;;;;9.77;6.73;;;;;;;3.52;100.00;95146.53;5029111;28;20606;-85
2022/11/28 02:53:44;;;;;;;7.67;6.20;;;;;;;3.41;100.00;95127.13;5033429;28;20221;-84
2022/11/28 02:56:12;;;;;;;8.23;6.47;;;;;;;3.50;100.00;95150.25;5035551;28;20198;-79
2022/11/28 02:58:39;;;;;;;9.13;6.30;;;;;;;3.43;100.00;95142.41;5034088;28;21021;-79
2022/11/28 03:01:12;;;;;;;8.97;6.13;;;;;;;3.45;100.00;95145.59;5039303;28;20206;-78
2022/11/28 03:03:53;;;;;;;9.67;6.10;;;;;;;3.51;100.00;95152.66;5031936;28;20207;-79
2022/11/28 03:06:32;;;;;;;8.80;6.23;;;;;;;3.38;100.00;95130.03;5030266;28;20191;-80
2022/11/28 03:09:40;;;;;;;8.83;5.97;;;;;;;3.60;100.00;95153.44;5033244;28;20222;-80
2022/11/28 03:12:20;;;;;;;8.27;5.80;;;;;;;3.55;100.00;95150.56;4949054;28;20636;-80
2022/11/28 03:14:52;;;;;;;8.33;5.87;;;;;;;3.51;100.00;95151.84;4947606;28;20755;-78
2022/11/28 03:17:27;;;;;;;9.37;6.13;;;;;;;3.43;100.00;95145.75;5003902;28;20264;-78
2022/11/28 03:20:07;;;;;;;8.50;6.00;;;;;;;3.46;100.00;95148.97;5036783;28;20202;-78
2022/11/28 03:22:40;;;;;;;7.80;5.87;;;;;;;3.40;100.00;95155.56;5034157;28;20293;-79
2022/11/28 03:25:13;;;;;;;8.90;6.47;;;;;;;3.35;100.00;95135.47;5037849;28;20199;-79
2022/11/28 03:27:45;;;;;;;7.70;5.70;;;;;;;3.43;100.00;95153.44;5039951;28;20201;-79
2022/11/28 03:30:18;;;;;;;7.63;5.30;;;;;;;3.37;100.00;95143.03;5034904;28;20211;-89
2022/11/28 03:32:48;;;;;;;7.30;5.53;;;;;;;3.48;100.00;95154.75;5033829;28;20253;-89
2022/11/28 03:35:20;;;;;;;7.60;5.80;;;;;;;3.49;100.00;95156.34;5034845;28;20211;-87
2022/11/28 03:37:51;;;;;;;7.43;5.47;;;;;;;3.47;100.00;95156.50;5034849;28;20257;-89
2022/11/28 03:40:22;;;;;;;8.53;5.77;;;;;;;3.46;100.00;95161.81;5034862;28;20260;-90
2022/11/28 03:42:51;;;;;;;6.53;5.03;;;;;;;3.36;100.00;95144.00;5034757;28;20215;-90
2022/11/28 03:45:21;;;;;;;6.77;5.27;;;;;;;3.43;100.00;95144.97;5035062;28;20205;-79
2022/11/28 03:47:55;;;;;;;7.87;5.33;;;;;;;3.43;100.00;95148.31;5039009;28;20199;-79
2022/11/28 03:50:34;;;;;;;5.77;4.80;;;;;;;3.42;100.00;95144.16;5035939;28;20210;-78
2022/11/28 03:53:04;;;;;;;7.20;5.27;;;;;;;3.41;100.00;95157.97;5043532;28;20710;-79
2022/11/28 03:55:37;;;;;;;6.73;5.00;;;;;;;3.40;100.00;95156.38;5040799;28;20665;-79
2022/11/28 03:58:12;;;;;;;6.80;5.03;;;;;;;3.41;100.00;95141.72;5035876;28;20566;-79
2022/11/28 04:00:49;;;;;;;6.90;4.90;;;;;;;3.50;100.00;95150.25;5035194;28;20197;-79
2022/11/28 04:03:26;;;;;;;6.93;5.23;;;;;;;3.39;100.00;95141.09;5036693;28;20599;-78
2022/11/28 04:06:00;;;;;;;8.03;5.57;;;;;;;3.37;100.00;95132.78;5034939;28;20197;-78
2022/11/28 04:08:31;;;;;;;6.30;4.73;;;;;;;3.46;100.00;95133.56;5031793;28;20202;-78
2022/11/28 04:11:05;;;;;;;7.87;5.23;;;;;;;3.42;100.00;95138.22;5030087;28;20198;-87
2022/11/28 04:13:37;;;;;;;6.20;4.40;;;;;;;3.44;100.00;95134.50;5032159;28;20209;-88
2022/11/28 04:16:08;;;;;;;7.00;4.80;;;;;;;3.48;100.00;95131.63;5038306;28;20230;-88
2022/11/28 04:18:43;;;;;;;6.93;4.93;;;;;;;3.40;100.00;95127.31;5032835;28;20614;-86
2022/11/28 04:21:16;;;;;;;7.97;5.30;;;;;;;3.52;100.00;95143.19;5033310;28;20202;-78
2022/11/28 04:23:46;;;;;;;7.77;5.03;;;;;;;3.43;100.00;95127.00;5035412;28;20209;-79
2022/11/28 04:26:17;;;;;;;7.30;5.13;;;;;;;3.38;100.00;95124.88;5037593;28;20209;-79
2022/11/28 04:28:47;;;;;;;6.63;4.80;;;;;;;3.41;100.00;95150.25;5040566;28;20295;-79
2022/11/28 04:31:16;;;;;;;7.03;4.83;;;;;;;3.38;100.00;95147.19;5031431;28;20207;-79
2022/11/28 04:33:48;;;;;;;7.07;5.00;;;;;;;3.35;100.00;95147.50;5035277;28;20235;-79
2022/11/28 04:36:19;;;;;;;5.53;4.57;;;;;;;3.32;100.00;95148.66;5034548;28;20205;-79
2022/11/28 04:38:55;;;;;;;5.70;4.50;;;;;;;3.32;100.00;95153.78;5036156;28;20203;-79
2022/11/28 04:41:26;;;;;;;6.17;4.60;;;;;;;3.35;100.00;95155.22;5038516;28;20200;-79
2022/11/28 04:44:02;;;;;;;5.93;4.63;;;;;;;3.46;100.00;95159.25;5038444;28;20225;-80
2022/11/28 04:46:37;;;;;;;6.17;4.87;;;;;;;3.44;100.00;95149.13;5033426;28;20206;-78
2022/11/28 04:49:05;;;;;;;6.07;4.80;;;;;;;3.40;100.00;95148.66;5027482;28;20218;-79
2022/11/28 04:51:42;;;;;;;7.47;4.80;;;;;;;3.48;100.00;95154.75;5037369;28;20209;-78
2022/11/28 04:54:16;;;;;;;9.53;5.40;;;;;;;3.40;100.00;95146.09;5033638;28;20221;-79
2022/11/28 04:56:46;;;;;;;6.00;4.93;;;;;;;3.50;100.00;95160.50;5035931;28;20196;-90
2022/11/28 04:59:14;;;;;;;6.13;4.60;;;;;;;3.40;100.00;95156.38;5033736;28;20210;-87
2022/11/28 05:01:44;;;;;;;5.63;4.57;;;;;;;3.49;100.00;95167.44;5033376;28;20622;-79
2022/11/28 05:04:12;;;;;;;5.97;4.57;;;;;;;3.45;100.00;95161.00;5034657;28;20205;-79
2022/11/28 05:06:40;;;;;;;6.23;4.13;;;;;;;3.41;100.00;95157.16;5037573;28;20204;-78
2022/11/28 05:09:07;;;;;;;6.20;4.50;;;;;;;3.55;100.00;95163.41;5037193;28;20222;-79
2022/11/28 05:11:34;;;;;;;5.10;3.93;;;;;;;3.54;100.00;95157.47;5030271;28;20206;-79
2022/11/28 05:14:01;;;;;;;5.77;4.80;;;;;;;3.62;100.00;95166.94;5033142;28;20206;-79
2022/11/28 05:16:28;;;;;;;6.60;4.60;;;;;;;3.55;100.00;95158.28;5033242;28;20264;-79
2022/11/28 05:18:54;;;;;;;8.00;5.50;;;;;;;3.51;100.00;95157.78;5041811;28;20190;-79
2022/11/28 05:21:21;;;;;;;11.10;6.43;;;;;;;3.55;100.00;95166.75;5030830;28;20203;-79
2022/11/28 05:23:49;;;;;;;11.40;6.90;;;;;;;3.61;100.00;95165.34;5033616;28;20198;-79
2022/11/28 05:26:18;;;;;;;9.40;5.83;;;;;;;3.59;100.00;95165.50;5029398;28;20199;-80
2022/11/28 05:28:46;;;;;;;8.53;5.33;;;;;;;3.54;100.00;95160.03;5034134;28;20214;-81
2022/11/28 05:31:13;;;;;;;7.57;4.17;;;;;;;3.46;100.00;95143.84;5031272;28;20680;-87
2022/11/28 05:33:40;;;;;;;9.20;6.63;;;;;;;3.50;100.00;95156.19;5030218;28;20241;-84
2022/11/28 05:36:09;;;;;;;13.33;7.07;;;;;;;3.51;100.00;95157.78;5037663;28;20198;-84
2022/11/28 05:38:37;;;;;;;5.83;4.40;;;;;;;3.36;100.00;95142.22;5029325;28;20213;-85
2022/11/28 05:41:06;;;;;;;7.47;5.10;;;;;;;3.44;100.00;95141.41;5031566;28;20210;-83
2022/11/28 05:43:33;;;;;;;5.23;4.10;;;;;;;3.57;100.00;95154.59;5031784;28;20191;-82
2022/11/28 05:45:59;;;;;;;6.53;5.17;;;;;;;3.56;100.00;95157.28;5029362;28;20575;-82
2022/11/28 05:48:26;;;;;;;6.43;4.83;;;;;;;3.55;100.00;95163.41;5030034;28;20206;-79
2022/11/28 05:50:53;;;;;;;5.40;4.37;;;;;;;3.39;100.00;95147.06;5036128;28;20225;-79
2022/11/28 05:53:20;;;;;;;4.93;4.03;;;;;;;3.54;100.00;95151.53;5042499;28;20213;-80
2022/11/28 05:55:47;;;;;;;5.53;4.37;;;;;;;3.54;100.00;95154.09;5031623;28;20206;-79
2022/11/28 05:58:15;;;;;;;7.63;4.97;;;;;;;3.60;100.00;95149.13;5036969;28;20207;-86
2022/11/28 06:00:42;;;;;;;8.37;4.93;;;;;;;3.59;100.00;95146.69;5032151;28;20614;-78
2022/11/28 06:03:09;;;;;;;7.77;5.00;;;;;;;2.97;100.00;95071.16;5034801;28;20709;-78
2022/11/28 06:05:40;;;;;;;6.83;4.70;;;;;;;3.49;100.00;95136.63;5032029;28;20212;-79
2022/11/28 06:08:07;;;;;;;7.97;5.07;;;;;;;3.53;100.00;95148.16;5021225;28;20209;-78
2022/11/28 06:10:34;;;;;;;8.47;5.33;;;;;;;3.59;100.00;95159.53;5031535;28;20223;-78
2022/11/28 06:13:01;;;;;;;8.60;5.27;;;;;;;3.67;100.00;95162.09;5031705;28;20221;-79
2022/11/28 06:15:30;;;;;;;7.43;4.87;;;;;;;3.71;100.00;95148.78;5031599;28;20194;-80
2022/11/28 06:17:57;;;;;;;11.40;7.07;;;;;;;3.72;100.00;95149.59;5028220;28;20202;-77
2022/11/28 06:20:24;;;;;;;8.40;5.10;;;;;;;3.74;100.00;95163.06;5031205;28;20198;-78
2022/11/28 06:22:51;;;;;;;7.67;5.37;;;;;;;3.71;100.00;95150.53;5031021;28;20241;-77
2022/11/28 06:25:18;;;;;;;9.70;5.70;;;;;;;3.68;100.00;95156.81;5028011;28;20195;-79
2022/11/28 06:27:45;;;;;;;8.70;5.33;;;;;;;3.67;100.00;95154.38;5037224;28;20198;-85
2022/11/28 06:30:12;;;;;;;7.53;5.33;;;;;;;3.67;100.00;95154.38;5036277;28;20233;-84
2022/11/28 06:32:40;;;;;;;12.03;6.00;;;;;;;3.67;100.00;95156.97;5034400;28;20713;-85
2022/11/28 06:35:08;;;;;;;10.67;7.70;;;;;;;3.63;100.00;95155.69;5035635;28;20629;-87
2022/11/28 06:37:34;;;;;;;10.10;5.50;;;;;;;3.66;100.00;95147.66;5034537;28;20556;-85
2022/11/28 06:40:01;;;;;;;9.10;5.57;;;;;;;3.70;100.00;95149.72;5035575;28;20209;-85
2022/11/28 06:42:28;;;;;;;8.60;5.27;;;;;;;3.67;100.00;95151.81;5034777;28;20567;-85
2022/11/28 06:44:55;;;;;;;6.47;4.87;;;;;;;3.59;100.00;95151.84;5036382;28;20218;-85
2022/11/28 06:47:22;;;;;;;8.93;5.90;;;;;;;3.61;100.00;95144.78;5035983;28;20207;-85
2022/11/28 06:49:50;;;;;;;9.47;5.47;;;;;;;3.60;100.00;95146.56;5038103;28;20249;-85
2022/11/28 06:52:17;;;;;;;7.27;5.03;;;;;;;3.53;100.00;95125.03;5034867;28;20210;-85
2022/11/28 06:54:44;;;;;;;6.37;4.70;;;;;;;3.67;100.00;95149.25;5037146;28;20217;-86
2022/11/28 06:57:11;;;;;;;7.27;5.67;;;;;;;3.74;100.00;95145.06;5035414;28;20226;-85
2022/11/28 06:59:38;;;;;;;9.50;5.23;;;;;;;3.82;100.00;95142.47;5034036;28;20195;-85
2022/11/28 07:02:05;;;;;;;8.27;5.40;;;;;;;3.87;100.00;95142.78;5039613;28;20253;-85
2022/11/28 07:04:32;;;;;;;24.77;17.00;;;;;;;3.86;100.00;95146.34;5034670;28;20209;-85
2022/11/28 07:07:01;;;;;;;17.70;11.97;;;;;;;3.90;100.00;95148.41;5038096;28;20638;-85
2022/11/28 07:09:27;;;;;;;8.37;6.37;;;;;;;3.94;100.00;95149.69;5034328;28;20199;-84
2022/11/28 07:11:54;;;;;;;8.07;5.43;;;;;;;3.61;100.00;95121.66;5040323;28;20202;-86
2022/11/28 07:14:21;;;;;;;8.10;5.60;;;;;;;3.62;100.00;95136.09;5034387;28;20233;-85
2022/11/28 07:16:48;;;;;;;8.40;5.80;;;;;;;3.38;100.00;95118.94;5033206;28;20632;-85
2022/11/28 07:19:21;;;;;;;9.10;5.50;;;;;;;3.47;100.00;95132.56;5033515;28;20202;-84
2022/11/28 07:21:48;;;;;;;8.50;5.33;;;;;;;3.31;100.00;95120.56;5022628;28;20222;-82
2022/11/28 07:24:17;;;;;;;8.43;5.67;;;;;;;3.50;100.00;95143.34;5031873;28;20198;-82
2022/11/28 07:26:44;;;;;;;8.77;5.57;;;;;;;3.59;100.00;95144.94;5031108;28;20210;-83
2022/11/28 07:29:14;;;;;;;8.37;5.70;;;;;;;3.59;100.00;95134.66;5033210;28;20195;-80
2022/11/28 07:31:41;;;;;;;10.43;5.70;;;;;;;3.70;100.00;95139.44;5031645;28;20222;-82
2022/11/28 07:34:09;;;;;;;8.03;5.43;;;;;;;3.79;100.00;95143.63;5031032;28;20202;-80
2022/11/28 07:36:36;;;;;;;7.67;5.40;;;;;;;3.75;100.00;95146.69;5032972;28;20195;-81
2022/11/28 07:39:07;;;;;;;7.00;4.90;;;;;;;3.78;100.00;95139.44;5031799;28;20203;-83
2022/11/28 07:41:35;;;;;;;8.07;5.67;;;;;;;3.72;100.00;95134.94;5036963;28;20191;-80
2022/11/28 07:44:04;;;;;;;8.47;5.60;;;;;;;3.71;100.00;95138.50;5031597;28;20207;-82
2022/11/28 07:46:32;;;;;;;9.40;5.97;;;;;;;3.57;100.00;95134.03;5033889;28;20583;-80
2022/11/28 07:48:59;;;;;;;9.03;6.00;;;;;;;3.45;100.00;95117.34;5031217;28;20684;-84
2022/11/28 07:51:30;;;;;;;11.40;7.00;;;;;;;3.68;100.00;95148.28;5033271;28;20219;-81
2022/11/28 07:53:57;;;;;;;11.40;6.43;;;;;;;3.74;100.00;95120.19;5033238;28;20295;-81
2022/11/28 07:56:27;;;;;;;8.63;5.03;;;;;;;3.79;100.00;95146.19;5035057;28;20194;-82
2022/11/28 07:58:56;;;;;;;9.27;6.10;;;;;;;3.86;100.00;95136.84;5032815;28;20210;-81
2022/11/28 08:01:28;;;;;;;9.20;5.77;;;;;;;3.93;100.00;95131.84;5032528;28;20238;-81
2022/11/28 08:03:56;;;;;;;7.83;5.50;;;;;;;4.00;100.00;95137.94;5034116;28;20256;-80
2022/11/28 08:06:25;;;;;;;8.17;5.40;;;;;;;4.07;100.00;95131.16;5031372;28;20203;-79
2022/11/28 08:08:52;;;;;;;7.97;5.30;;;;;;;4.20;100.00;95136.59;5032979;28;20195;-78
2022/11/28 08:11:21;;;;;;;8.60;5.43;;;;;;;4.32;100.00;95126.72;5037618;28;20606;-77
2022/11/28 08:13:48;;;;;;;10.03;6.17;;;;;;;4.37;100.00;95127.81;5036743;28;20203;-78
2022/11/28 08:16:19;;;;;;;10.03;6.60;;;;;;;4.52;100.00;95127.91;5035234;28;20224;-79
2022/11/28 08:18:47;;;;;;;11.97;6.90;;;;;;;4.58;100.00;95129.81;5028799;28;20206;-79
2022/11/28 08:21:16;;;;;;;17.87;7.57;;;;;;;4.68;100.00;95132.16;5033327;28;20242;-79
2022/11/28 08:23:44;;;;;;;9.70;6.67;;;;;;;4.70;100.00;95118.16;5034981;28;20217;-79
2022/11/28 08:26:16;;;;;;;11.67;7.50;;;;;;;4.66;100.00;95128.94;5033905;28;20192;-79
2022/11/28 08:28:46;;;;;;;10.00;6.93;;;;;;;4.50;100.00;95133.22;5034767;28;20206;-79
2022/11/28 08:31:17;;;;;;;8.30;6.40;;;;;;;4.52;100.00;95127.91;5034848;28;20645;-79
2022/11/28 08:33:45;;;;;;;10.23;6.77;;;;;;;4.51;100.00;95126.28;5032755;28;20235;-78
2022/11/28 08:36:17;;;;;;;10.80;7.07;;;;;;;4.47;100.00;95114.75;5034073;28;20203;-80
2022/11/28 08:38:45;;;;;;;10.73;6.37;;;;;;;4.44;100.00;95123.59;5031926;28;20269;-81
2022/11/28 08:41:14;;;;;;;10.83;6.33;;;;;;;4.43;100.00;95116.84;5038673;28;20393;-78
2022/11/28 08:43:41;;;;;;;9.50;6.67;;;;;;;4.49;100.00;95112.81;5037193;28;20231;-81
2022/11/28 08:46:10;;;;;;;8.60;6.43;;;;;;;4.65;100.00;95122.22;5025727;28;20195;-83
2022/11/28 08:48:43;;;;;;;9.60;6.50;;;;;;;4.63;100.00;95106.94;5033227;28;20260;-84
2022/11/28 08:51:13;;;;;;;8.50;5.90;;;;;;;4.65;100.00;95123.00;5032235;28;20319;-81
2022/11/28 08:53:40;;;;;;;8.63;5.93;;;;;;;4.82;100.00;95121.94;5030459;28;20203;-84
2022/11/28 08:56:08;;;;;;;8.13;5.83;;;;;;;4.97;100.00;95119.41;5034174;28;20194;-81
2022/11/28 08:58:36;;;;;;;9.57;6.40;;;;;;;5.12;100.00;95109.97;5033834;28;20214;-82
2022/11/28 09:01:03;;;;;;;8.93;5.97;;;;;;;5.24;100.00;95100.88;5036649;28;20286;-81
2022/11/28 09:03:30;;;;;;;7.53;5.80;;;;;;;5.36;100.00;95103.81;5033984;28;20254;-80
2022/11/28 09:06:02;;;;;;;9.17;5.40;;;;;;;5.41;100.00;95101.50;5035917;28;20200;-81
2022/11/28 09:08:29;;;;;;;13.60;5.57;;;;;;;5.43;100.00;95096.97;5033476;28;20191;-81
2022/11/28 09:10:56;;;;;;;9.57;6.03;;;;;;;5.38;100.00;95092.34;5036127;28;20226;-80
2022/11/28 09:13:22;;;;;;;8.33;5.83;;;;;;;5.43;100.00;95092.63;5030819;28;20207;-80
2022/11/28 09:15:49;;;;;;;7.57;5.50;;;;;;;5.46;100.00;95087.13;5036043;28;20211;-79
2022/11/28 09:18:16;;;;;;;7.30;5.20;;;;;;;5.44;100.00;95088.28;5037381;28;20207;-79
2022/11/28 09:20:43;;;;;;;12.23;6.53;;;;;;;5.36;100.00;95088.34;5036559;28;20275;-80
2022/11/28 09:23:12;;;;;;;7.03;5.30;;;;;;;5.42;100.00;95082.50;5036356;28;20201;-80
2022/11/28 09:25:39;;;;;;;8.77;5.50;;;;;;;5.48;100.00;95080.00;5037343;28;20204;-80
2022/11/28 09:28:07;;;;;;;8.53;5.10;;;;;;;5.31;100.00;95075.97;5036776;28;20206;-79
2022/11/28 09:30:34;;;;;;;8.10;5.90;;;;;;;5.23;100.00;95077.84;5037662;28;20221;-78
2022/11/28 09:33:01;;;;;;;10.97;6.13;;;;;;;5.12;100.00;95071.34;5038895;28;20232;-80
2022/11/28 09:35:28;;;;;;;8.50;6.07;;;;;;;4.44;100.00;95056.69;5040026;28;20199;-78
2022/11/28 09:37:55;;;;;;;10.13;6.50;;;;;;;3.88;100.00;95050.09;5041163;28;20207;-79
2022/11/28 09:40:31;;;;;;;11.30;7.37;;;;;;;3.45;100.00;95042.84;5027370;28;20202;-78
2022/11/28 09:43:01;;;;;;;11.63;7.83;;;;;;;3.74;100.00;95040.50;5035557;28;20205;-78
2022/11/28 09:45:28;;;;;;;13.40;8.23;;;;;;;4.19;100.00;95031.28;5034917;28;20211;-78
2022/11/28 09:47:57;;;;;;;13.80;8.13;;;;;;;4.62;100.00;95038.41;5034394;28;20199;-78
2022/11/28 09:50:26;;;;;;;12.50;7.80;;;;;;;5.33;100.00;95035.41;5037471;28;20606;-80
2022/11/28 09:52:59;;;;;;;13.00;7.50;;;;;;;5.66;100.00;95018.59;5026878;28;20199;-79
2022/11/28 09:55:35;;;;;;;10.13;7.30;;;;;;;5.97;100.00;95027.97;5034648;28;20297;-80
2022/11/28 09:58:05;;;;;;;9.77;6.67;;;;;;;6.23;100.00;95023.88;5035718;28;20210;-79
2022/11/28 10:00:37;;;;;;;10.53;8.03;;;;;;;5.96;100.00;95021.19;5030779;28;20220;-88
2022/11/28 10:03:30;;;;;;;12.07;8.13;;;;;;;5.53;100.00;95027.94;5032261;28;20206;-87
2022/11/28 10:06:07;;;;;;;10.63;6.90;;;;;;;6.45;100.00;95022.13;5036442;28;20556;-91
2022/11/28 10:08:41;;;;;;;8.53;6.40;;;;;;;7.20;99.97;95037.09;5036305;28;20202;-90
2022/11/28 10:11:24;;;;;;;8.33;6.27;;;;;;;7.57;97.21;95034.19;5030932;28;20214;-89
2022/11/28 10:14:02;;;;;;;8.23;5.77;;;;;;;8.50;92.16;95033.63;5032944;28;20209;-90
2022/11/28 10:16:42;;;;;;;7.83;5.50;;;;;;;8.75;88.98;95034.66;5032172;28;20293;-84
2022/11/28 10:19:13;;;;;;;8.30;5.57;;;;;;;9.63;87.65;95029.09;5029502;28;20245;-82
2022/11/28 10:21:44;;;;;;;7.50;6.17;;;;;;;10.16;83.15;95029.75;5031610;28;20187;-82
2022/11/28 10:24:15;;;;;;;8.77;6.67;;;;;;;10.08;82.96;95019.56;5032937;28;20207;-83
2022/11/28 10:26:47;;;;;;;10.60;7.37;;;;;;;10.66;80.50;95019.53;5029255;28;20195;-83
2022/11/28 10:29:25;;;;;;;8.43;6.47;;;;;;;11.52;76.51;95012.66;5035947;28;20199;-83
2022/11/28 10:31:55;;;;;;;8.57;6.80;;;;;;;11.50;74.30;94988.66;5029298;28;20743;-83
2022/11/28 10:34:29;;;;;;;9.97;6.90;;;;;;;9.82;80.36;95009.28;5027334;28;20605;-80
2022/11/28 10:37:01;;;;;;;9.80;6.80;;;;;;;8.55;86.90;95002.75;5030789;28;20226;-79
2022/11/28 10:39:28;;;;;;;9.60;6.47;;;;;;;8.23;87.66;94999.06;5028421;28;20950;-79
2022/11/28 10:42:13;;;;;;;7.57;6.10;;;;;;;8.14;86.29;94994.25;5042896;28;20201;-80
2022/11/28 10:44:57;;;;;;;7.83;5.50;;;;;;;7.83;86.55;95003.28;5036306;28;20289;-80
2022/11/28 10:47:44;;;;;;;7.17;4.80;;;;;;;8.10;85.80;94998.22;5028040;28;20197;-80
2022/11/28 10:50:19;;;;;;;7.53;4.93;;;;;;;7.62;87.11;94992.25;5029492;28;20229;-83
2022/11/28 10:52:55;;;;;;;5.63;4.70;;;;;;;7.67;87.22;94990.69;5029333;28;20191;-81
2022/11/28 10:55:36;;;;;;;6.40;5.00;;;;;;;7.44;88.89;94974.66;5025779;28;20202;-82
2022/11/28 10:58:16;;;;;;;7.33;4.87;;;;;;;7.01;88.64;94988.66;5032105;28;20284;-81
2022/11/28 11:00:48;;;;;;;8.20;5.60;;;;;;;6.88;89.48;94986.78;5033900;28;20218;-80
2022/11/28 11:03:18;;;;;;;8.23;5.00;;;;;;;6.78;90.82;94981.91;5031689;28;20329;-81
2022/11/28 11:05:46;;;;;;;7.73;5.53;;;;;;;6.74;92.10;94983.28;5035339;28;20195;-80
2022/11/28 11:08:19;;;;;;;8.23;5.63;;;;;;;6.55;92.63;94978.72;5034643;28;20305;-79
2022/11/28 11:10:50;;;;;;;7.27;5.47;;;;;;;6.54;91.64;94968.59;5031494;28;20907;-87
2022/11/28 11:13:22;;;;;;;7.97;5.50;;;;;;;6.55;93.29;94973.56;5030710;28;20199;-86
2022/11/28 11:15:51;;;;;;;6.37;4.90;;;;;;;6.30;93.50;94956.84;5032107;28;20286;-86
2022/11/28 11:18:24;;;;;;;7.07;5.33;;;;;;;5.92;93.69;94953.69;5032810;28;20206;-87
2022/11/28 11:20:52;;;;;;;9.20;5.80;;;;;;;5.47;97.79;94953.91;5033753;28;20210;-87
2022/11/28 11:23:21;;;;;;;9.33;4.80;;;;;;;5.52;97.29;94962.72;5029660;28;20656;-86
2022/11/28 11:25:51;;;;;;;6.30;4.80;;;;;;;5.66;95.85;94950.78;5035436;28;20200;-84
2022/11/28 11:28:42;;;;;;;6.83;5.17;;;;;;;5.89;96.35;94948.88;5033526;28;20214;-87
2022/11/28 11:31:20;;;;;;;7.90;5.27;;;;;;;5.76;95.34;94943.56;5036878;28;20228;-79
2022/11/28 11:33:51;;;;;;;8.43;5.63;;;;;;;5.59;98.02;94942.19;5037302;28;20236;-79
2022/11/28 11:36:29;;;;;;;9.17;5.60;;;;;;;5.84;97.57;94940.06;5045148;28;20225;-86
2022/11/28 11:39:16;;;;;;;7.23;5.03;;;;;;;6.09;95.37;94938.81;5036556;28;20190;-85
2022/11/28 11:41:45;;;;;;;6.20;4.50;;;;;;;6.29;94.19;94932.84;5032802;28;20642;-85
2022/11/28 11:44:30;;;;;;;6.13;4.23;;;;;;;6.42;93.08;94937.31;5035896;28;20213;-79
2022/11/28 11:46:59;;;;;;;6.53;4.70;;;;;;;6.59;91.80;94936.09;5035256;28;20205;-79
2022/11/28 11:49:31;;;;;;;5.97;4.10;;;;;;;6.67;90.81;94933.34;5035343;28;20201;-78